createdAt,value
2024-02-08T00:00:33.102Z,13.90
2024-02-08T00:03:21.155Z,8.70
2024-02-08T00:05:49.228Z,6.20
2024-02-08T00:08:17.353Z,9.30
2024-02-08T00:10:45.576Z,8.80
2024-02-08T00:13:14.425Z,9.00
2024-02-08T00:15:42.828Z,9.90
2024-02-08T00:18:10.974Z,6.40
2024-02-08T00:20:39.097Z,6.70
2024-02-08T00:23:09.565Z,9.30
2024-02-08T00:25:37.807Z,7.30
2024-02-08T00:28:06.013Z,6.40
2024-02-08T00:30:34.116Z,8.90
2024-02-08T00:33:02.354Z,8.10
2024-02-08T00:35:30.435Z,8.30
2024-02-08T00:37:58.577Z,6.90
2024-02-08T00:40:26.790Z,10.50
2024-02-08T00:42:54.945Z,7.10
2024-02-08T00:45:23.798Z,9.50
2024-02-08T00:47:56.027Z,7.20
2024-02-08T00:50:24.686Z,9.10
2024-02-08T00:52:56.247Z,6.80
2024-02-08T00:55:25.516Z,8.20
2024-02-08T00:57:55.604Z,8.40
2024-02-08T01:00:23.732Z,8.00
2024-02-08T01:02:51.809Z,6.90
2024-02-08T01:05:22.478Z,7.60
2024-02-08T01:10:18.736Z,8.30
2024-02-08T01:12:47.017Z,7.70
2024-02-08T01:15:16.834Z,8.80
2024-02-08T01:17:45.077Z,7.70
2024-02-08T01:20:19.387Z,8.30
2024-02-08T01:22:47.483Z,14.20
2024-02-08T01:25:16.194Z,7.30
2024-02-08T01:27:45.054Z,12.50
2024-02-08T01:30:15.127Z,7.90
2024-02-08T01:32:43.306Z,9.50
2024-02-08T01:35:23.553Z,9.10
2024-02-08T01:37:52.762Z,7.60
2024-02-08T01:40:22.361Z,7.10
2024-02-08T01:42:58.898Z,8.10
2024-02-08T01:45:36.155Z,6.10
2024-02-08T01:48:11.625Z,9.10
2024-02-08T01:51:01.820Z,8.10
2024-02-08T01:53:30.748Z,9.60
2024-02-08T01:56:02.548Z,9.20
2024-02-08T01:58:32.816Z,9.50
2024-02-08T02:01:02.055Z,11.60
2024-02-08T02:03:33.345Z,9.50
2024-02-08T02:06:02.111Z,9.40
2024-02-08T02:08:34.609Z,8.40
2024-02-08T02:11:23.910Z,9.70
2024-02-08T02:13:53.043Z,11.70
2024-02-08T02:16:24.545Z,9.30
2024-02-08T02:18:52.755Z,11.10
2024-02-08T02:21:22.611Z,10.30
2024-02-08T02:23:53.493Z,10.20
2024-02-08T02:26:22.377Z,12.10
2024-02-08T02:28:52.440Z,10.90
2024-02-08T02:31:23.343Z,12.90
2024-02-08T02:33:55.174Z,8.80
2024-02-08T02:36:23.604Z,13.30
2024-02-08T02:38:53.043Z,9.80
2024-02-08T02:41:26.758Z,9.90
2024-02-08T02:43:55.084Z,11.70
2024-02-08T02:46:23.756Z,11.80
2024-02-08T02:48:52.194Z,11.10
2024-02-08T02:51:21.101Z,10.80
2024-02-08T02:53:49.147Z,18.10
2024-02-08T02:56:21.054Z,10.00
2024-02-08T02:58:49.307Z,9.10
2024-02-08T03:01:17.589Z,12.30
2024-02-08T03:03:48.758Z,8.80
2024-02-08T03:06:17.389Z,11.10
2024-02-08T03:08:46.995Z,11.10
2024-02-08T03:11:16.039Z,9.30
2024-02-08T03:13:47.505Z,9.00
2024-02-08T03:16:16.468Z,13.70
2024-02-08T03:18:47.821Z,9.80
2024-02-08T03:21:19.623Z,9.30
2024-02-08T03:23:49.302Z,9.80
2024-02-08T03:26:18.129Z,10.60
2024-02-08T03:28:48.063Z,10.10
2024-02-08T03:31:16.308Z,11.10
2024-02-08T03:33:45.535Z,8.80
2024-02-08T03:36:13.902Z,10.30
2024-02-08T03:38:42.028Z,17.60
2024-02-08T03:41:10.148Z,8.90
2024-02-08T03:43:39.844Z,9.50
2024-02-08T03:46:09.149Z,8.80
2024-02-08T03:48:41.712Z,10.70
2024-02-08T03:51:12.291Z,8.60
2024-02-08T03:53:40.498Z,7.70
2024-02-08T03:56:08.718Z,10.80
2024-02-08T03:58:38.010Z,9.70
2024-02-08T04:01:10.181Z,9.60
2024-02-08T04:04:03.202Z,8.80
2024-02-08T04:06:51.352Z,9.30
2024-02-08T04:09:35.177Z,11.90
2024-02-08T04:12:22.810Z,8.70
2024-02-08T04:15:09.422Z,11.80
2024-02-08T04:17:56.305Z,8.80
2024-02-08T04:20:42.884Z,9.30
2024-02-08T04:23:32.053Z,7.70
2024-02-08T04:26:22.896Z,8.80
2024-02-08T04:29:13.307Z,9.70
2024-02-08T04:32:00.060Z,9.60
2024-02-08T04:34:46.674Z,9.40
2024-02-08T04:37:33.241Z,8.00
2024-02-08T04:40:19.913Z,10.70
2024-02-08T04:43:06.579Z,8.20
2024-02-08T04:45:53.061Z,10.20
2024-02-08T04:48:39.941Z,8.40
2024-02-08T04:51:31.052Z,9.40
2024-02-08T04:53:59.961Z,8.40
2024-02-08T04:56:29.934Z,8.10
2024-02-08T04:59:20.127Z,10.00
2024-02-08T05:01:48.316Z,7.40
2024-02-08T05:04:22.606Z,8.10
2024-02-08T05:06:51.311Z,7.20
2024-02-08T05:09:21.327Z,4.90
2024-02-08T05:11:50.737Z,5.70
2024-02-08T05:14:24.183Z,7.10
2024-02-08T05:16:58.661Z,6.30
2024-02-08T05:19:28.361Z,7.50
2024-02-08T05:22:01.217Z,5.60
2024-02-08T05:24:32.211Z,8.40
2024-02-08T05:27:00.789Z,6.10
2024-02-08T05:29:30.029Z,7.50
2024-02-08T05:31:59.777Z,5.60
2024-02-08T05:34:28.302Z,6.90
2024-02-08T05:36:57.351Z,5.10
2024-02-08T05:39:27.309Z,7.90
2024-02-08T05:41:58.088Z,6.10
2024-02-08T05:44:34.191Z,8.60
2024-02-08T05:47:12.009Z,7.40
2024-02-08T05:49:51.098Z,7.00
2024-02-08T05:52:19.880Z,9.50
2024-02-08T05:54:50.261Z,8.10
2024-02-08T05:57:18.400Z,8.10
2024-02-08T05:59:47.295Z,6.50
2024-02-08T06:02:17.115Z,7.70
2024-02-08T06:04:52.720Z,8.30
2024-02-08T06:07:22.262Z,7.20
2024-02-08T06:09:56.782Z,6.30
2024-02-08T06:12:43.741Z,7.60
2024-02-08T06:15:27.380Z,6.50
2024-02-08T06:18:00.385Z,6.80
2024-02-08T06:20:35.692Z,7.00
2024-02-08T06:23:24.493Z,7.50
2024-02-08T06:26:25.422Z,6.50
2024-02-08T06:28:56.589Z,7.90
2024-02-08T06:31:42.384Z,9.10
2024-02-08T06:34:22.875Z,8.50
2024-02-08T06:37:00.434Z,8.70
2024-02-08T06:39:45.898Z,9.70
2024-02-08T06:42:52.553Z,6.80
2024-02-08T06:45:47.269Z,7.80
2024-02-08T06:48:36.563Z,9.70
2024-02-08T06:51:41.137Z,10.10
2024-02-08T06:54:27.857Z,9.20
2024-02-08T06:57:14.749Z,8.20
2024-02-08T07:00:01.633Z,6.40
2024-02-08T07:02:48.619Z,6.50
2024-02-08T07:05:35.461Z,7.50
2024-02-08T07:08:22.132Z,11.00
2024-02-08T07:11:08.783Z,6.40
2024-02-08T07:13:55.464Z,6.90
2024-02-08T07:16:41.936Z,6.60
2024-02-08T07:19:28.635Z,6.90
2024-02-08T07:22:15.612Z,8.40
2024-02-08T07:25:03.950Z,7.90
2024-02-08T07:27:51.123Z,10.20
2024-02-08T07:30:37.885Z,10.30
2024-02-08T07:33:24.666Z,9.10
2024-02-08T07:36:11.311Z,9.70
2024-02-08T07:38:55.262Z,7.00
2024-02-08T07:41:24.810Z,8.50
2024-02-08T07:43:58.838Z,7.30
2024-02-08T07:46:32.033Z,7.40
2024-02-08T07:49:07.193Z,9.80
2024-02-08T07:51:35.781Z,8.80
2024-02-08T07:54:11.917Z,6.80
2024-02-08T07:56:48.227Z,13.30
2024-02-08T07:59:28.491Z,7.60
2024-02-08T08:01:59.508Z,10.10
2024-02-08T08:04:44.048Z,11.30
2024-02-08T08:07:13.986Z,9.00
2024-02-08T08:09:42.717Z,10.20
2024-02-08T08:12:10.814Z,9.10
2024-02-08T08:14:41.597Z,8.40
2024-02-08T08:19:43.230Z,9.10
2024-02-08T08:22:21.027Z,8.50
2024-02-08T08:25:14.204Z,8.20
2024-02-08T08:27:52.468Z,9.50
2024-02-08T08:30:32.613Z,8.60
2024-02-08T08:33:02.254Z,9.70
2024-02-08T08:36:01.369Z,5.80
2024-02-08T08:38:30.261Z,9.30
2024-02-08T08:41:16.853Z,8.00
2024-02-08T08:43:55.165Z,8.80
2024-02-08T08:46:25.827Z,9.00
2024-02-08T08:51:32.184Z,10.20
2024-02-08T08:54:16.147Z,9.00
2024-02-08T08:56:44.732Z,9.00
2024-02-08T08:59:12.868Z,7.70
2024-02-08T09:01:42.431Z,11.10
2024-02-08T09:04:12.106Z,13.80
2024-02-08T09:06:44.346Z,12.20
2024-02-08T09:09:50.566Z,7.80
2024-02-08T09:12:29.603Z,11.90
2024-02-08T09:15:01.871Z,12.50
2024-02-08T09:17:50.348Z,16.50
2024-02-08T09:20:24.610Z,9.10
2024-02-08T09:22:54.810Z,8.20
2024-02-08T09:25:31.704Z,9.20
2024-02-08T09:28:25.934Z,10.40
2024-02-08T09:30:58.904Z,10.20
2024-02-08T09:33:46.084Z,16.10
2024-02-08T09:36:15.853Z,9.40
2024-02-08T09:38:46.225Z,6.60
2024-02-08T09:41:17.244Z,7.60
2024-02-08T09:43:46.876Z,7.80
2024-02-08T09:46:48.511Z,10.80
2024-02-08T09:49:19.831Z,7.00
2024-02-08T09:52:04.790Z,10.50
2024-02-08T09:54:33.894Z,12.90
2024-02-08T09:57:23.350Z,10.10
2024-02-08T10:00:11.987Z,9.80
2024-02-08T10:02:55.554Z,18.20
2024-02-08T10:05:44.490Z,9.40
2024-02-08T10:08:28.522Z,10.00
2024-02-08T10:11:15.482Z,8.60
2024-02-08T10:13:57.741Z,8.50
2024-02-08T10:16:43.980Z,7.70
2024-02-08T10:19:29.711Z,10.00
2024-02-08T10:22:03.627Z,6.40
2024-02-08T10:24:50.291Z,6.90
2024-02-08T10:27:22.504Z,5.90
2024-02-08T10:30:08.875Z,6.90
2024-02-08T10:32:38.679Z,5.80
2024-02-08T10:35:21.757Z,6.50
2024-02-08T10:38:09.156Z,6.90
2024-02-08T10:40:40.474Z,7.30
2024-02-08T10:43:19.272Z,6.40
2024-02-08T10:45:54.777Z,5.20
2024-02-08T10:48:30.477Z,8.80
2024-02-08T10:51:03.809Z,7.40
2024-02-08T10:53:44.934Z,7.10
2024-02-08T10:56:19.269Z,7.40
2024-02-08T10:59:11.208Z,7.40
2024-02-08T11:01:52.549Z,6.30
2024-02-08T11:04:31.795Z,6.10
2024-02-08T11:07:23.677Z,8.60
2024-02-08T11:09:53.797Z,5.80
2024-02-08T11:12:31.853Z,6.50
2024-02-08T11:15:40.003Z,8.20
2024-02-08T11:18:30.593Z,11.90
2024-02-08T11:21:05.967Z,11.30
2024-02-08T11:23:47.494Z,5.00
2024-02-08T11:26:19.928Z,6.30
2024-02-08T11:28:55.969Z,4.50
2024-02-08T11:31:34.236Z,7.30
2024-02-08T11:34:16.748Z,4.80
2024-02-08T11:36:45.334Z,4.50
2024-02-08T11:39:31.042Z,3.70
2024-02-08T11:42:06.609Z,5.00
2024-02-08T11:44:38.709Z,4.50
2024-02-08T11:47:20.879Z,5.30
2024-02-08T11:49:56.009Z,4.50
2024-02-08T11:52:26.940Z,4.70
2024-02-08T11:55:01.285Z,4.70
2024-02-08T11:57:38.318Z,7.90
2024-02-08T12:00:17.220Z,4.20
2024-02-08T12:02:49.488Z,3.80
2024-02-08T12:05:22.401Z,7.40
2024-02-08T12:07:51.639Z,4.90
2024-02-08T12:10:23.580Z,5.10
2024-02-08T12:12:54.911Z,4.70
2024-02-08T12:15:23.221Z,4.60
2024-02-08T12:17:54.480Z,4.90
2024-02-08T12:20:24.894Z,5.70
2024-02-08T12:22:54.577Z,6.30
2024-02-08T12:25:22.741Z,6.00
2024-02-08T12:27:59.106Z,7.30
2024-02-08T12:30:35.044Z,9.20
2024-02-08T12:33:14.449Z,7.50
2024-02-08T12:35:43.442Z,8.70
2024-02-08T12:38:14.494Z,11.80
2024-02-08T12:40:45.590Z,16.00
2024-02-08T12:43:15.612Z,7.60
2024-02-08T12:45:43.877Z,9.50
2024-02-08T12:48:16.691Z,9.60
2024-02-08T12:50:45.322Z,7.70
2024-02-08T12:53:14.432Z,4.70
2024-02-08T12:55:43.356Z,5.60
2024-02-08T12:58:15.225Z,6.20
2024-02-08T13:00:46.944Z,4.90
2024-02-08T13:03:16.949Z,6.40
2024-02-08T13:05:46.854Z,7.00
2024-02-08T13:08:23.007Z,9.70
2024-02-08T13:10:58.352Z,3.80
2024-02-08T13:13:26.945Z,4.70
2024-02-08T13:16:02.537Z,5.60
2024-02-08T13:18:31.282Z,6.40
2024-02-08T13:21:00.387Z,6.70
2024-02-08T13:23:28.758Z,8.30
2024-02-08T13:25:58.948Z,6.00
2024-02-08T13:30:58.662Z,7.00
2024-02-08T13:35:58.239Z,6.10
2024-02-08T13:41:19.350Z,6.30
2024-02-08T13:43:48.990Z,4.90
2024-02-08T13:46:17.431Z,4.70
2024-02-08T13:48:45.666Z,7.20
2024-02-08T13:51:18.046Z,5.20
2024-02-08T13:53:46.943Z,6.90
2024-02-08T13:56:15.238Z,5.10
2024-02-08T13:58:43.779Z,8.30
2024-02-08T14:01:13.129Z,5.40
2024-02-08T14:03:41.643Z,6.90
2024-02-08T14:06:11.428Z,8.80
2024-02-08T14:08:44.541Z,7.70
2024-02-08T14:11:18.064Z,10.10
2024-02-08T14:13:51.165Z,5.50
2024-02-08T14:16:22.752Z,5.80
2024-02-08T14:18:51.946Z,5.40
2024-02-08T14:21:27.160Z,7.00
2024-02-08T14:24:02.771Z,4.30
2024-02-08T14:26:35.232Z,9.30
2024-02-08T14:29:05.689Z,4.60
2024-02-08T14:31:39.374Z,5.90
2024-02-08T14:34:11.224Z,7.20
2024-02-08T14:39:29.253Z,6.70
2024-02-08T14:42:00.226Z,6.50
2024-02-08T14:44:42.319Z,5.20
2024-02-08T14:47:23.410Z,7.00
2024-02-08T14:49:57.072Z,8.40
2024-02-08T14:52:31.013Z,7.40
2024-02-08T14:55:25.995Z,7.50
2024-02-08T14:58:00.992Z,8.80
2024-02-08T15:00:32.710Z,7.20
2024-02-08T15:03:10.393Z,6.40
2024-02-08T15:05:50.866Z,7.60
2024-02-08T15:08:39.898Z,7.90
2024-02-08T15:11:11.145Z,7.20
2024-02-08T15:13:47.943Z,9.70
2024-02-08T15:16:32.193Z,6.40
2024-02-08T15:19:01.085Z,7.80
2024-02-08T15:21:38.210Z,7.50
2024-02-08T15:24:09.292Z,10.80
2024-02-08T15:26:39.250Z,8.50
2024-02-08T15:29:11.049Z,7.20
2024-02-08T15:31:48.882Z,7.10
2024-02-08T15:34:18.186Z,9.80
2024-02-08T15:37:13.752Z,9.00
2024-02-08T15:39:42.089Z,8.80
2024-02-08T15:42:19.824Z,11.20
2024-02-08T15:44:54.898Z,8.50
2024-02-08T15:47:23.220Z,10.80
2024-02-08T15:49:57.829Z,10.80
2024-02-08T15:52:30.692Z,8.80
2024-02-08T15:55:00.624Z,9.20
2024-02-08T15:57:34.593Z,8.50
2024-02-08T16:00:21.628Z,9.20
2024-02-08T16:02:53.112Z,6.80
2024-02-08T16:05:23.607Z,7.90
2024-02-08T16:07:58.952Z,9.30
2024-02-08T16:10:33.297Z,10.90
2024-02-08T16:13:07.888Z,10.20
2024-02-08T16:15:57.704Z,10.40
2024-02-08T16:18:27.342Z,9.20
2024-02-08T16:20:56.673Z,9.70
2024-02-08T16:23:28.541Z,10.90
2024-02-08T16:26:15.511Z,7.80
2024-02-08T16:28:52.241Z,13.10
2024-02-08T16:31:26.388Z,10.80
2024-02-08T16:33:54.928Z,16.10
2024-02-08T16:36:30.870Z,17.30
2024-02-08T16:39:09.291Z,17.80
2024-02-08T16:41:49.949Z,13.10
2024-02-08T16:44:23.660Z,13.30
2024-02-08T16:46:56.956Z,14.20
2024-02-08T16:49:32.065Z,14.70
2024-02-08T16:52:05.990Z,12.00
2024-02-08T16:54:44.040Z,13.70
2024-02-08T16:57:16.327Z,14.00
2024-02-08T16:59:50.230Z,12.90
2024-02-08T17:02:41.206Z,10.80
2024-02-08T17:05:18.426Z,9.60
2024-02-08T17:07:47.256Z,9.40
2024-02-08T17:10:38.003Z,11.50
2024-02-08T17:13:17.060Z,10.00
2024-02-08T17:16:03.587Z,12.40
2024-02-08T17:18:45.890Z,9.70
2024-02-08T17:21:37.904Z,10.40
2024-02-08T17:24:09.918Z,11.20
2024-02-08T17:26:38.126Z,9.20
2024-02-08T17:29:20.829Z,10.70
2024-02-08T17:31:49.885Z,11.90
2024-02-08T17:34:23.710Z,11.80
2024-02-08T17:36:55.887Z,10.00
2024-02-08T17:39:41.563Z,10.00
2024-02-08T17:42:11.403Z,14.70
2024-02-08T17:44:41.565Z,9.70
2024-02-08T17:47:10.510Z,12.60
2024-02-08T17:49:38.924Z,17.00
2024-02-08T17:52:08.217Z,8.20
2024-02-08T17:54:47.137Z,9.50
2024-02-08T17:57:24.643Z,12.50
2024-02-08T18:00:00.964Z,10.70
2024-02-08T18:02:30.404Z,9.60
2024-02-08T18:05:10.529Z,9.00
2024-02-08T18:07:38.961Z,13.90
2024-02-08T18:10:21.802Z,10.80
2024-02-08T18:12:57.337Z,10.60
2024-02-08T18:15:27.126Z,10.80
2024-02-08T18:17:57.095Z,9.90
2024-02-08T18:20:31.514Z,10.50
2024-02-08T18:23:06.947Z,10.80
2024-02-08T18:25:37.631Z,11.20
2024-02-08T18:28:11.017Z,11.00
2024-02-08T18:30:39.542Z,12.30
2024-02-08T18:33:10.183Z,14.90
2024-02-08T18:35:38.707Z,16.70
2024-02-08T18:38:09.742Z,17.00
2024-02-08T18:40:39.620Z,15.50
2024-02-08T18:43:08.338Z,19.20
2024-02-08T18:45:38.882Z,14.70
2024-02-08T18:50:44.504Z,16.90
2024-02-08T18:53:14.238Z,14.40
2024-02-08T18:55:46.835Z,14.10
2024-02-08T18:58:19.478Z,13.30
2024-02-08T19:00:51.251Z,13.60
2024-02-08T19:03:21.977Z,10.50
2024-02-08T19:05:51.327Z,12.20
2024-02-08T19:08:23.113Z,10.70
2024-02-08T19:11:03.297Z,11.60
2024-02-08T19:13:33.371Z,13.40
2024-02-08T19:16:13.696Z,12.40
2024-02-08T19:18:48.644Z,13.00
2024-02-08T19:21:29.735Z,17.40
2024-02-08T19:24:03.522Z,16.90
2024-02-08T19:26:33.840Z,14.10
2024-02-08T19:29:07.740Z,16.80
2024-02-08T19:31:43.386Z,13.80
2024-02-08T19:34:19.352Z,17.80
2024-02-08T19:36:53.502Z,17.30
2024-02-08T19:39:28.071Z,15.90
2024-02-08T19:41:56.863Z,11.60
2024-02-08T19:44:26.572Z,11.70
2024-02-08T19:47:07.790Z,11.80
2024-02-08T19:49:40.841Z,14.70
2024-02-08T19:52:16.656Z,12.90
2024-02-08T19:54:51.243Z,12.70
2024-02-08T19:57:22.354Z,13.20
2024-02-08T20:02:28.785Z,15.30
2024-02-08T20:05:02.736Z,13.40
2024-02-08T20:07:33.271Z,13.50
2024-02-08T20:10:03.040Z,16.00
2024-02-08T20:12:34.295Z,16.70
2024-02-08T20:15:17.465Z,14.70
2024-02-08T20:17:53.217Z,13.60
2024-02-08T20:20:23.481Z,12.20
2024-02-08T20:22:57.107Z,18.40
2024-02-08T20:25:28.553Z,16.00
2024-02-08T20:28:02.140Z,14.40
2024-02-08T20:30:31.233Z,17.60
2024-02-08T20:33:02.858Z,18.00
2024-02-08T20:35:31.153Z,16.00
2024-02-08T20:38:06.762Z,15.80
2024-02-08T20:40:37.297Z,23.00
2024-02-08T20:43:11.707Z,15.30
2024-02-08T20:45:42.341Z,16.60
2024-02-08T20:48:11.066Z,16.30
2024-02-08T20:50:41.878Z,14.40
2024-02-08T20:53:10.650Z,14.70
2024-02-08T20:55:41.635Z,15.40
2024-02-08T20:58:13.948Z,13.10
2024-02-08T21:00:46.394Z,15.30
2024-02-08T21:03:16.937Z,15.70
2024-02-08T21:05:50.262Z,17.30
2024-02-08T21:08:18.563Z,15.30
2024-02-08T21:10:49.721Z,15.90
2024-02-08T21:13:18.861Z,17.70
2024-02-08T21:15:49.848Z,18.00
2024-02-08T21:18:21.951Z,16.40
2024-02-08T21:20:56.591Z,16.70
2024-02-08T21:23:25.137Z,15.70
2024-02-08T21:25:54.738Z,17.20
2024-02-08T21:28:27.281Z,18.00
2024-02-08T21:30:58.168Z,17.00
2024-02-08T21:33:32.440Z,17.80
2024-02-08T21:36:05.450Z,17.00
2024-02-08T21:38:36.737Z,15.20
2024-02-08T21:41:05.125Z,16.90
2024-02-08T21:43:35.906Z,17.60
2024-02-08T21:46:05.210Z,16.50
2024-02-08T21:48:34.150Z,14.70
2024-02-08T21:51:02.441Z,19.20
2024-02-08T21:53:30.547Z,14.30
2024-02-08T21:55:58.681Z,15.90
2024-02-08T21:58:26.817Z,12.80
2024-02-08T22:03:40.441Z,13.90
2024-02-08T22:06:08.674Z,15.20
2024-02-08T22:08:37.761Z,17.00
2024-02-08T22:11:09.300Z,19.70
2024-02-08T22:13:37.511Z,16.20
2024-02-08T22:16:09.402Z,16.90
2024-02-08T22:18:37.754Z,15.40
2024-02-08T22:21:07.553Z,27.60
2024-02-08T22:23:37.977Z,15.70
2024-02-08T22:26:08.217Z,23.40
2024-02-08T22:28:40.541Z,24.30
2024-02-08T22:31:12.435Z,19.30
2024-02-08T22:33:40.786Z,22.50
2024-02-08T22:36:10.952Z,20.00
2024-02-08T22:38:39.204Z,21.10
2024-02-08T22:41:07.271Z,18.90
2024-02-08T22:43:39.922Z,24.00
2024-02-08T22:46:09.491Z,22.40
2024-02-08T22:48:37.586Z,24.70
2024-02-08T22:51:07.562Z,20.80
2024-02-08T22:53:36.554Z,19.80
2024-02-08T22:56:05.082Z,21.40
2024-02-08T22:58:33.094Z,19.70
2024-02-08T23:01:24.135Z,20.90
2024-02-08T23:03:52.978Z,19.30
2024-02-08T23:06:21.288Z,19.30
2024-02-08T23:08:49.758Z,19.40
2024-02-08T23:11:17.770Z,20.10
2024-02-08T23:13:48.283Z,18.80
2024-02-08T23:18:49.986Z,17.10
2024-02-08T23:21:26.043Z,18.70
2024-02-08T23:23:54.988Z,20.80
2024-02-08T23:26:23.481Z,20.40
2024-02-08T23:28:51.666Z,21.30
2024-02-08T23:31:20.184Z,21.40
2024-02-08T23:33:48.703Z,20.10
2024-02-08T23:36:20.913Z,18.80
2024-02-08T23:38:49.075Z,18.90
2024-02-08T23:41:18.819Z,19.40
2024-02-08T23:43:46.994Z,23.80
2024-02-08T23:46:17.567Z,19.90
2024-02-08T23:48:52.530Z,21.00
2024-02-08T23:51:23.949Z,21.30
2024-02-08T23:53:52.860Z,21.90
2024-02-08T23:56:25.154Z,18.20
2024-02-08T23:58:53.767Z,20.40
